Time;durP1;ratioP1;P1;durP2;ratioP2;P2;SDS_P1;SDS_P2;PMS_P1;PMS_P2;Temp;Humidity;BMP_temperature;BMP_pressure;BME280_temperature;BME280_humidity;BME280_pressure;Samples;Min_cycle;Max_cycle;Signal;HPM_P1;HPM_P2
2024/01/18 00:05:19;;;;;;;21.65;11.23;;;;;;;-3.23;100.00;99056.41;5519276;23;20050;-81
2024/01/18 00:43:18;;;;;;;16.90;9.30;;;;;;;-3.57;100.00;99103.09;5468582;23;19936;-85
2024/01/18 01:03:37;;;;;;;;;;;;;;;-3.51;100.00;99126.78;5675485;23;20039;-79
2024/01/18 01:06:04;;;;;;;24.27;12.77;;;;;;;-3.55;100.00;99120.38;4981313;28;19942;-81
2024/01/18 01:08:30;;;;;;;25.83;13.73;;;;;;;-3.53;100.00;99128.81;4986545;28;20055;-85
2024/01/18 01:11:03;;;;;;;26.52;14.25;;;;;;;-3.51;100.00;99132.03;4986294;28;20019;-84
2024/01/18 01:13:32;;;;;;;25.08;13.50;;;;;;;-3.53;100.00;99134.03;4964497;28;20034;-84
2024/01/18 01:16:00;;;;;;;22.67;13.02;;;;;;;-3.54;100.00;99142.91;4948142;28;20130;-84
2024/01/18 01:18:26;;;;;;;20.40;12.15;;;;;;;-3.48;100.00;99152.53;4963550;28;20050;-84
2024/01/18 01:20:53;;;;;;;23.88;13.23;;;;;;;-3.49;100.00;99153.53;4977923;28;20145;-84
2024/01/18 01:23:20;;;;;;;25.73;14.20;;;;;;;-3.53;100.00;99147.94;4979697;28;20039;-84
2024/01/18 01:25:46;;;;;;;21.38;12.73;;;;;;;-3.48;100.00;99150.69;4964185;28;20035;-84
2024/01/18 01:28:15;;;;;;;24.35;13.30;;;;;;;-3.52;100.00;99151.34;4994962;28;20046;-83
2024/01/18 01:30:42;;;;;;;25.00;13.93;;;;;;;-3.50;100.00;99160.59;4977372;28;20066;-83
2024/01/18 01:33:10;;;;;;;26.27;14.70;;;;;;;-3.47;100.00;99159.34;4990983;28;20042;-81
2024/01/18 01:35:39;;;;;;;26.17;15.13;;;;;;;-3.43;100.00;99160.53;4990208;28;20023;-86
2024/01/18 02:31:31;;;;;;;;;;;;;;;;;;;;;
2024/01/18 02:35:24;;;;;;;;;;;;;;;;;;;;;
2024/01/18 02:39:16;;;;;;;;;;;;;;;;;;;;;
2024/01/18 02:51:43;;;;;;;;;;;;;;;;;;;;;
2024/01/18 02:55:44;;;;;;;;;;;;;;;;;;;;;
2024/01/18 03:12:04;;;;;;;;;;;;;;;;;;;;;
2024/01/18 03:15:29;;;;;;;;;;;;;;;-4.14;100.00;99255.84;4863357;29;20081;-82
2024/01/18 03:20:06;;;;;;;;;;;;;;;;;;;;;
2024/01/18 03:36:54;;;;;;;;;;;;;;;-4.18;100.00;99252.88;4743621;30;20075;-82
2024/01/18 03:40:13;;;;;;;21.90;12.10;;;;;;;-4.23;100.00;99260.53;4739868;30;20380;-82
2024/01/18 03:50:08;;;;;;;23.90;13.30;;;;;;;-4.41;100.00;99256.00;4968622;28;20090;-86
2024/01/18 04:05:23;;;;;;;;;;;;;;;;;;;;;
2024/01/18 04:14:39;;;;;;;;;;;;;;;;;;;;;
2024/01/18 04:18:16;;;;;;;;;;;;;;;;;;;;;
2024/01/18 04:21:42;;;;;;;;;;;;;;;;;;;;;
2024/01/18 04:25:19;;;;;;;;;;;;;;;;;;;;;
2024/01/18 04:31:46;;;;;;;19.17;11.35;;;;;;;-4.89;100.00;99276.47;4952807;28;20124;-82
2024/01/18 04:34:42;;;;;;;20.77;11.65;;;;;;;-4.99;100.00;99281.31;4940838;28;20051;-81
2024/01/18 04:38:22;;;;;;;22.85;12.88;;;;;;;-5.00;100.00;99274.50;4970029;28;20027;-81
2024/01/18 04:45:06;;;;;;;;;;;;;;;;;;;;;
2024/01/18 04:48:42;;;;;;;20.95;12.00;;;;;;;-4.95;100.00;99272.88;4956990;28;20035;-81
2024/01/18 04:55:06;;;;;;;;;;;;;;;;;;;;;
2024/01/18 04:58:16;;;;;;;;;;;;;;;;;;;;;
2024/01/18 05:01:28;;;;;;;;;;;;;;;;;;;;;
2024/01/18 05:04:08;;;;;;;20.08;11.85;;;;;;;-4.98;100.00;99309.03;4935935;29;20039;-81
2024/01/18 05:07:40;;;;;;;19.05;11.32;;;;;;;-5.12;100.00;99297.00;4927243;29;20047;-81
2024/01/18 05:10:26;;;;;;;23.33;11.73;;;;;;;-5.09;100.00;99304.41;4923810;28;20035;-81
2024/01/18 05:13:30;;;;;;;19.10;11.52;;;;;;;-5.16;100.00;99304.44;4948900;28;20062;-81
2024/01/18 05:16:32;;;;;;;;;;;;;;;;;;;;;
2024/01/18 05:19:32;;;;;;;;;;;;;;;;;;;;;
2024/01/18 05:22:58;;;;;;;23.48;12.32;;;;;;;-5.28;100.00;99312.09;4950206;28;20042;-81
2024/01/18 05:25:56;;;;;;;22.90;12.57;;;;;;;-5.38;100.00;99308.28;4945416;28;20039;-81
2024/01/18 05:28:56;;;;;;;20.92;11.57;;;;;;;-5.48;100.00;99308.69;4942656;28;20055;-81
2024/01/18 05:31:53;;;;;;;21.77;11.55;;;;;;;-5.45;100.00;99318.69;4930581;28;20580;-81
2024/01/18 05:34:48;;;;;;;;;;;;;;;;;;;;;
2024/01/18 05:38:07;;;;;;;20.50;11.20;;;;;;;-5.52;100.00;99313.47;4954753;28;20066;-81
2024/01/18 05:40:54;;;;;;;20.20;10.52;;;;;;;-5.58;100.00;99313.47;4919171;28;20121;-81
2024/01/18 05:43:42;;;;;;;20.08;10.95;;;;;;;-5.61;100.00;99326.94;4959032;28;20027;-81
2024/01/18 05:46:50;;;;;;;;;;;;;;;;;;;;;
2024/01/18 05:49:26;;;;;;;18.40;11.07;;;;;;;-5.74;100.00;99327.72;4956079;28;20059;-81
2024/01/18 05:52:29;;;;;;;;;;;;;;;;;;;;;
2024/01/18 05:55:04;;;;;;;19.65;9.70;;;;;;;-5.71;100.00;99344.75;4943573;29;20035;-81
2024/01/18 05:57:41;;;;;;;18.42;10.45;;;;;;;-5.73;100.00;99351.97;4944687;28;20102;-81
2024/01/18 06:00:41;;;;;;;21.17;10.98;;;;;;;-5.80;100.00;99339.72;4958733;28;20039;-81
2024/01/18 06:03:42;;;;;;;;;;;;;;;;;;;;;
2024/01/18 06:06:39;;;;;;;;;;;;;;;;;;;;;
2024/01/18 06:09:18;;;;;;;;;;;;;;;-5.65;100.00;99357.00;4952892;29;20051;-80
2024/01/18 06:11:52;;;;;;;21.10;11.13;;;;;;;-5.74;100.00;99345.16;4954162;29;19911;-80
2024/01/18 06:14:36;;;;;;;30.27;14.57;;;;;;;-5.71;100.00;99360.41;4953574;28;20391;-80
2024/01/18 06:17:18;;;;;;;25.80;13.57;;;;;;;-5.78;100.00;99363.78;4955812;29;20174;-80
2024/01/18 06:20:19;;;;;;;25.08;12.93;;;;;;;-5.79;100.00;99364.78;4959532;28;20051;-80
2024/01/18 06:22:58;;;;;;;27.15;12.50;;;;;;;-5.79;100.00;99369.22;4953397;29;20035;-81
2024/01/18 06:25:39;;;;;;;25.55;12.75;;;;;;;-5.80;100.00;99372.81;4952753;29;20063;-81
2024/01/18 06:28:28;;;;;;;20.48;11.90;;;;;;;-5.82;100.00;99377.44;4938752;29;20047;-80
2024/01/18 06:31:27;;;;;;;25.20;12.98;;;;;;;-5.84;100.00;99377.63;4943793;29;20036;-81
2024/01/18 06:34:08;;;;;;;25.13;13.68;;;;;;;-5.82;100.00;99380.84;4938852;29;20043;-81
2024/01/18 06:36:43;;;;;;;;;;;;;;;-5.77;100.00;99393.28;4971342;28;20031;-81
2024/01/18 06:39:18;;;;;;;19.17;11.05;;;;;;;-5.80;100.00;99389.28;4942254;29;19926;-80
2024/01/18 06:41:49;;;;;;;20.90;11.45;;;;;;;-5.79;100.00;99397.91;4954903;29;20034;-80
2024/01/18 06:44:36;;;;;;;29.45;14.73;;;;;;;-5.83;100.00;99392.25;4940406;28;20050;-81
2024/01/18 06:47:09;;;;;;;22.67;12.57;;;;;;;-5.81;100.00;99394.69;4920033;29;20420;-81
2024/01/18 06:49:50;;;;;;;27.27;14.30;;;;;;;-5.86;100.00;99392.66;4923318;29;20477;-81
2024/01/18 06:52:48;;;;;;;28.00;15.18;;;;;;;-5.89;100.00;99398.28;4946506;28;20035;-81
2024/01/18 06:55:43;;;;;;;27.77;13.93;;;;;;;-5.93;100.00;99402.28;4923752;28;20090;-81
2024/01/18 06:58:20;;;;;;;24.25;12.68;;;;;;;-5.96;100.00;99413.13;4930191;28;20091;-81
2024/01/18 07:01:09;;;;;;;20.75;11.52;;;;;;;-6.03;100.00;99409.66;4923199;29;20063;-81
2024/01/18 07:03:49;;;;;;;24.42;11.82;;;;;;;-6.04;100.00;99408.06;4923784;29;20031;-81
2024/01/18 07:06:17;;;;;;;24.45;11.73;;;;;;;-5.98;100.00;99422.13;4922883;28;20492;-81
2024/01/18 07:08:57;;;;;;;21.40;11.98;;;;;;;-6.00;100.00;99426.72;4951739;28;20066;-81
2024/01/18 07:11:40;;;;;;;22.30;11.40;;;;;;;-6.03;100.00;99427.91;4921548;28;20062;-81
2024/01/18 07:14:06;;;;;;;22.02;11.00;;;;;;;-6.08;100.00;99432.91;4935887;28;20373;-81
2024/01/18 07:16:40;;;;;;;21.10;11.05;;;;;;;-6.13;100.00;99430.09;4921644;28;20047;-81
2024/01/18 07:19:16;;;;;;;17.80;10.57;;;;;;;-6.14;100.00;99423.25;4953399;28;20027;-81
2024/01/18 07:21:48;;;;;;;22.42;12.35;;;;;;;-6.09;100.00;99431.31;4934200;29;20055;-81
2024/01/18 07:24:30;;;;;;;23.92;12.25;;;;;;;-6.05;100.00;99441.13;4941888;28;20098;-81
2024/01/18 07:26:59;;;;;;;28.50;14.73;;;;;;;-6.04;100.00;99439.34;4936494;29;20097;-81
2024/01/18 07:29:48;;;;;;;35.22;16.95;;;;;;;-6.01;100.00;99444.19;4924697;28;20035;-81
2024/01/18 07:32:25;;;;;;;24.00;13.95;;;;;;;-5.92;100.00;99456.03;4953215;28;20035;-81
2024/01/18 07:34:56;;;;;;;26.70;14.13;;;;;;;-5.95;100.00;99450.44;4934583;29;20044;-81
2024/01/18 07:37:31;;;;;;;32.38;15.60;;;;;;;-5.88;100.00;99446.81;4936089;28;20552;-81
2024/01/18 07:39:58;;;;;;;25.60;13.85;;;;;;;-5.87;100.00;99451.03;4932889;29;20039;-81
2024/01/18 07:42:34;;;;;;;24.25;13.82;;;;;;;-5.81;100.00;99465.91;4922544;28;20050;-81
2024/01/18 07:45:05;;;;;;;23.88;13.13;;;;;;;-5.80;100.00;99471.91;4938771;29;20043;-81
2024/01/18 07:47:53;;;;;;;;;;;;;;;;;;;;;
2024/01/18 07:50:24;;;;;;;;;;;;;;;-5.72;100.00;99478.75;4934963;28;20043;-81
2024/01/18 07:52:53;;;;;;;23.08;13.32;;;;;;;-5.71;100.00;99477.75;4930869;29;19969;-81
2024/01/18 07:59:03;;;;;;;23.50;11.38;;;;;;;-5.65;100.00;99485.59;4948134;28;20645;-81
2024/01/18 08:01:36;;;;;;;24.83;13.00;;;;;;;-5.66;100.00;99478.78;4934503;28;20078;-81
2024/01/18 08:04:07;;;;;;;27.35;13.85;;;;;;;-5.57;100.00;99489.84;4929205;28;20031;-81
2024/01/18 08:06:42;;;;;;;26.75;14.20;;;;;;;-5.53;100.00;99498.91;4932627;28;20046;-81
2024/01/18 08:09:11;;;;;;;26.98;15.43;;;;;;;-5.55;100.00;99495.69;4934823;29;20039;-81
2024/01/18 08:11:42;;;;;;;24.77;13.73;;;;;;;-5.52;100.00;99490.06;4922293;28;20046;-81
2024/01/18 08:14:30;;;;;;;22.38;12.77;;;;;;;-5.49;100.00;99494.88;4931318;28;20035;-81
2024/01/18 08:16:58;;;;;;;;;;;;;;;-5.39;100.00;99500.56;4922379;29;20043;-81
2024/01/18 08:19:24;;;;;;;23.92;12.52;;;;;;;-5.42;100.00;99500.13;4919192;28;19914;-81
2024/01/18 08:21:51;;;;;;;27.90;14.32;;;;;;;-5.36;100.00;99515.81;4918568;29;20039;-81
2024/01/18 08:24:17;;;;;;;25.45;14.10;;;;;;;-5.42;100.00;99511.38;4935112;29;20128;-81
2024/01/18 08:26:55;;;;;;;24.88;14.13;;;;;;;-5.40;100.00;99503.38;4952215;28;20548;-81
2024/01/18 08:29:45;;;;;;;28.88;15.60;;;;;;;-5.32;100.00;99517.03;4934049;28;20035;-80
2024/01/18 08:32:34;;;;;;;32.20;18.58;;;;;;;-5.27;100.00;99513.84;4922071;28;20047;-80
2024/01/18 08:35:08;;;;;;;33.05;17.48;;;;;;;-5.24;100.00;99514.25;4935366;29;20046;-80
2024/01/18 08:37:53;;;;;;;;;;;;;;;;;;;;;
2024/01/18 08:40:23;;;;;;;26.50;15.20;;;;;;;-5.17;100.00;99529.13;4936220;28;20045;-80
2024/01/18 08:43:26;;;;;;;30.23;14.93;;;;;;;-5.12;100.00;99532.75;4934468;29;20042;-80
2024/01/18 08:46:01;;;;;;;27.00;15.95;;;;;;;-5.04;100.00;99534.38;4920569;29;20051;-80
2024/01/18 08:48:47;;;;;;;29.13;15.85;;;;;;;-5.02;100.00;99533.16;4936568;28;20050;-80
2024/01/18 08:51:28;;;;;;;28.73;16.65;;;;;;;-4.96;100.00;99531.56;4940716;28;20130;-80
2024/01/18 08:54:22;;;;;;;26.48;15.63;;;;;;;-4.86;100.00;99542.44;4933384;29;20448;-80
2024/01/18 08:57:40;;;;;;;;;;;;;;;;;;;;;
2024/01/18 09:00:17;;;;;;;29.95;16.95;;;;;;;-4.63;100.00;99562.97;4935544;29;20043;-81
2024/01/18 09:03:07;;;;;;;25.70;14.93;;;;;;;-4.58;100.00;99564.97;4936624;29;20507;-81
2024/01/18 09:06:07;;;;;;;28.35;14.85;;;;;;;-4.46;100.00;99569.41;4930036;28;20141;-81
2024/01/18 09:09:57;;;;;;;28.33;16.13;;;;;;;-4.33;100.00;99571.25;4931392;28;20047;-81
2024/01/18 09:32:44;;;;;;;;;;;;;;;;;;;;;
2024/01/18 09:40:42;;;;;;;;;;;;;;;;;;;;;
2024/01/18 09:48:25;;;;;;;;;;;;;;;;;;;;;
2024/01/18 09:52:52;;;;;;;;;;;;;;;;;;;;;
2024/01/18 10:22:43;;;;;;;;;;;;;;;;;;;;;
2024/01/18 10:42:37;;;;;;;14.30;7.18;;;;;;;-1.70;100.00;99693.44;4990977;23;20119;-81
2024/01/18 10:45:06;;;;;;;11.93;7.80;;;;;;;-1.63;100.00;99698.63;4960638;28;20047;-81
2024/01/18 10:47:32;;;;;;;15.23;7.88;;;;;;;-1.57;100.00;99689.91;4978141;28;20039;-81
2024/01/18 10:50:00;;;;;;;13.98;7.70;;;;;;;-1.49;100.00;99708.03;4967811;29;20039;-82
2024/01/18 10:52:28;;;;;;;13.27;7.53;;;;;;;-1.47;100.00;99703.34;4971063;28;20039;-81
2024/01/18 10:54:56;;;;;;;14.75;8.25;;;;;;;-1.41;100.00;99707.75;4966838;29;20046;-82
2024/01/18 10:57:22;;;;;;;12.55;8.38;;;;;;;-1.37;100.00;99703.66;4937781;29;20075;-83
2024/01/18 10:59:48;;;;;;;12.50;7.20;;;;;;;-1.25;100.00;99708.19;4966351;28;20032;-82
2024/01/18 11:02:17;;;;;;;;;;;;;;;-1.19;100.00;99712.59;4973525;29;20126;-83
2024/01/18 11:04:46;;;;;;;11.70;6.88;;;;;;;-1.12;100.00;99702.81;4963805;29;19918;-83
2024/01/18 11:07:15;;;;;;;13.38;6.97;;;;;;;-1.05;100.00;99714.03;4949724;29;20034;-82
2024/01/18 11:09:42;;;;;;;13.73;6.90;;;;;;;-0.98;100.00;99717.41;4952081;29;20059;-82
2024/01/18 11:12:09;;;;;;;11.48;7.10;;;;;;;-0.90;100.00;99711.84;4943304;29;20047;-82
2024/01/18 11:14:38;;;;;;;12.57;7.25;;;;;;;-0.86;100.00;99712.22;4944848;29;20016;-82
2024/01/18 11:17:12;;;;;;;11.90;7.25;;;;;;;-0.79;100.00;99714.78;4947927;29;20039;-83
2024/01/18 11:19:46;;;;;;;10.70;7.18;;;;;;;-0.76;100.00;99714.31;4977418;28;20116;-82
2024/01/18 11:22:26;;;;;;;11.70;7.25;;;;;;;-0.70;100.00;99710.81;4971944;29;20047;-82
2024/01/18 11:24:54;;;;;;;12.05;7.00;;;;;;;-0.65;100.00;99724.13;4986545;28;20034;-82
2024/01/18 11:27:21;;;;;;;13.80;7.07;;;;;;;-0.62;100.00;99721.03;4985995;28;20050;-82
2024/01/18 11:29:50;;;;;;;11.90;6.95;;;;;;;-0.56;100.00;99717.53;4978406;29;20056;-81
2024/01/18 11:32:18;;;;;;;11.25;5.82;;;;;;;-0.49;100.00;99725.31;4959549;28;20090;-83
2024/01/18 11:44:10;;;;;;;9.13;5.88;;;;;;;-0.13;100.00;99737.63;5746873;23;20062;-78
2024/01/18 11:46:41;;;;;;;11.50;5.63;;;;;;;-0.10;100.00;99730.06;4882933;29;20055;-79
2024/01/18 11:49:08;;;;;;;9.02;5.13;;;;;;;-0.10;100.00;99724.00;4866657;29;20036;-78
2024/01/18 11:51:35;;;;;;;10.00;5.20;;;;;;;-0.06;100.00;99728.59;4889636;29;20141;-79
2024/01/18 11:54:02;;;;;;;8.00;4.88;;;;;;;0.00;100.00;99734.81;4957973;28;20035;-79
2024/01/18 11:56:28;;;;;;;7.90;4.80;;;;;;;0.05;100.00;99737.53;4946088;29;20039;-79
2024/01/18 11:58:58;;;;;;;;;;;;;;;0.09;100.00;99757.13;4953397;28;20051;-79
2024/01/18 12:01:24;;;;;;;8.35;5.30;;;;;;;0.09;100.00;99749.25;4940995;28;19923;-80
2024/01/18 12:03:49;;;;;;;8.15;5.40;;;;;;;0.17;100.00;99754.19;4954830;29;20084;-79
2024/01/18 12:06:16;;;;;;;8.38;5.50;;;;;;;0.22;100.00;99766.66;4960759;28;20040;-80
2024/01/18 12:08:44;;;;;;;10.07;5.40;;;;;;;0.22;100.00;99750.88;4960375;28;20035;-79
2024/01/18 12:11:10;;;;;;;7.97;5.03;;;;;;;0.25;100.00;99764.38;4972899;28;20039;-79
2024/01/18 12:13:37;;;;;;;8.75;5.82;;;;;;;0.36;100.00;99775.19;4943068;28;20122;-80
2024/01/18 12:16:07;;;;;;;9.52;4.70;;;;;;;0.37;100.00;99755.72;4978077;28;20042;-80
2024/01/18 12:18:45;;;;;;;7.68;4.93;;;;;;;0.45;100.00;99764.06;4978916;28;20031;-78
2024/01/18 12:21:11;;;;;;;7.60;4.78;;;;;;;0.51;100.00;99776.34;4974229;29;20038;-80
2024/01/18 12:23:37;;;;;;;8.23;4.90;;;;;;;0.59;100.00;99777.03;4962694;28;20035;-79
2024/01/18 12:26:04;;;;;;;7.82;4.75;;;;;;;0.65;100.00;99776.94;4963092;29;20039;-80
2024/01/18 12:28:30;;;;;;;9.43;5.15;;;;;;;0.69;100.00;99778.09;4957058;29;20031;-80
2024/01/18 12:31:01;;;;;;;6.43;4.35;;;;;;;0.74;100.00;99772.91;4975259;29;20065;-80
2024/01/18 12:33:31;;;;;;;6.70;4.07;;;;;;;0.78;100.00;99781.97;4937811;29;20040;-81
2024/01/18 12:36:01;;;;;;;7.57;4.93;;;;;;;0.89;100.00;99782.22;4975807;28;20079;-80
2024/01/18 12:38:27;;;;;;;8.80;4.65;;;;;;;0.92;100.00;99779.91;4975097;29;20628;-80
2024/01/18 12:40:53;;;;;;;7.95;4.80;;;;;;;0.92;100.00;99781.75;4976655;28;20547;-79
2024/01/18 12:43:19;;;;;;;7.63;4.72;;;;;;;0.99;100.00;99793.00;4969296;28;20043;-78
2024/01/18 12:45:52;;;;;;;10.05;4.97;;;;;;;1.01;100.00;99796.19;4977049;28;20069;-79
2024/01/18 12:48:19;;;;;;;6.72;3.85;;;;;;;1.09;100.00;99801.13;4973831;28;20031;-80
2024/01/18 12:50:46;;;;;;;7.25;4.22;;;;;;;1.13;100.00;99797.00;4969919;28;20027;-79
2024/01/18 12:53:12;;;;;;;5.93;3.85;;;;;;;1.15;100.00;99802.81;4967878;28;20031;-78
2024/01/18 12:55:40;;;;;;;7.57;3.65;;;;;;;1.19;100.00;99803.97;4951080;29;20107;-78
2024/01/18 12:58:09;;;;;;;7.60;3.25;;;;;;;1.19;100.00;99809.25;4936892;29;20041;-77
2024/01/18 13:00:34;;;;;;;5.82;2.95;;;;;;;1.21;100.00;99816.94;4968675;28;20039;-77
2024/01/18 13:03:13;;;;;;;6.05;2.90;;;;;;;1.25;100.00;99829.44;4959800;28;20046;-78
2024/01/18 13:05:47;;;;;;;6.32;3.08;;;;;;;1.27;100.00;99827.38;4960194;28;20031;-78
2024/01/18 13:08:15;;;;;;;4.60;3.20;;;;;;;1.24;100.00;99833.13;4961782;28;20058;-77
2024/01/18 13:10:41;;;;;;;5.20;2.75;;;;;;;1.26;100.00;99841.59;4963824;28;20126;-79
2024/01/18 13:13:11;;;;;;;5.72;2.80;;;;;;;1.21;100.00;99835.41;4965644;28;20360;-79
2024/01/18 13:15:39;;;;;;;4.85;2.10;;;;;;;1.20;100.00;99836.44;4961670;28;20047;-80
2024/01/18 13:18:09;;;;;;;3.55;2.20;;;;;;;1.24;100.00;99848.94;4962620;28;20023;-79
2024/01/18 13:20:37;;;;;;;5.35;2.10;;;;;;;1.24;100.00;99854.22;4976834;28;20031;-78
2024/01/18 13:23:03;;;;;;;6.68;2.13;;;;;;;1.26;100.00;99865.31;4962067;28;20509;-80
2024/01/18 13:25:29;;;;;;;4.88;1.90;;;;;;;1.23;100.00;99862.38;4957660;28;20066;-78
2024/01/18 13:27:55;;;;;;;3.28;1.75;;;;;;;1.17;100.00;99864.06;4960501;28;20470;-77
2024/01/18 13:30:21;;;;;;;6.18;1.63;;;;;;;1.24;100.00;99862.13;4941163;29;20045;-78
2024/01/18 13:32:46;;;;;;;5.90;2.05;;;;;;;1.29;100.00;99872.81;4950408;28;20035;-77
2024/01/18 13:35:13;;;;;;;7.47;1.98;;;;;;;1.28;100.00;99870.38;4956107;28;20039;-79
2024/01/18 13:37:39;;;;;;;4.28;1.80;;;;;;;1.27;100.00;99869.56;4954504;28;20046;-79
2024/01/18 13:40:08;;;;;;;4.05;1.65;;;;;;;1.31;100.00;99875.19;4940949;29;20066;-81
2024/01/18 13:42:34;;;;;;;4.05;1.30;;;;;;;1.35;100.00;99887.72;4956756;28;20620;-78
2024/01/18 13:45:00;;;;;;;7.40;1.70;;;;;;;1.47;100.00;99884.25;4958121;28;20063;-77
2024/01/18 13:47:25;;;;;;;5.05;1.73;;;;;;;1.39;100.00;99903.06;4952672;28;20040;-79
2024/01/18 13:49:51;;;;;;;3.95;1.48;;;;;;;1.31;100.00;99902.38;4934379;28;20162;-81
2024/01/18 13:52:19;;;;;;;3.10;0.90;;;;;;;1.33;100.00;99908.22;4939619;29;20102;-80
2024/01/18 13:54:45;;;;;;;5.70;1.38;;;;;;;1.31;100.00;99906.84;4967296;28;20039;-79
2024/01/18 13:57:10;;;;;;;3.53;1.38;;;;;;;1.26;100.00;99910.16;4988832;23;20054;-79
2024/01/18 13:59:38;;;;;;;2.47;0.90;;;;;;;1.26;100.00;99923.34;4959235;28;20046;-82
2024/01/18 14:02:05;;;;;;;3.15;0.70;;;;;;;1.26;100.00;99915.44;4970727;28;20073;-84
2024/01/18 14:04:30;;;;;;;4.95;0.77;;;;;;;1.13;100.00;99928.84;4959493;28;20102;-81
2024/01/18 14:06:56;;;;;;;2.50;1.05;;;;;;;1.20;100.00;99932.19;4956824;28;20446;-85
2024/01/18 14:09:22;;;;;;;5.15;0.93;;;;;;;1.13;100.00;99942.03;4957802;28;20038;-81
2024/01/18 14:11:48;;;;;;;2.78;1.02;;;;;;;1.10;100.00;99939.88;4969906;28;20078;-83
2024/01/18 14:14:13;;;;;;;2.45;1.02;;;;;;;1.04;100.00;99944.22;4963823;28;20040;-83
2024/01/18 14:16:40;;;;;;;7.50;1.00;;;;;;;0.89;100.00;99948.31;4951958;28;20038;-81
2024/01/18 14:19:07;;;;;;;3.80;0.70;;;;;;;0.97;100.00;99956.69;4940332;28;20066;-79
2024/01/18 14:21:33;;;;;;;4.03;1.10;;;;;;;0.87;100.00;99966.16;4932595;29;20039;-82
2024/01/18 14:23:59;;;;;;;3.15;1.13;;;;;;;0.91;100.00;99969.97;4953370;28;20039;-81
2024/01/18 14:26:24;;;;;;;4.68;1.55;;;;;;;0.86;100.00;99973.25;4949696;28;20994;-81
2024/01/18 14:28:50;;;;;;;3.33;1.20;;;;;;;0.77;100.00;99980.69;4970782;28;20039;-83
2024/01/18 14:31:17;;;;;;;5.50;1.00;;;;;;;0.62;100.00;99982.94;4958002;28;20093;-82
2024/01/18 14:33:44;;;;;;;6.55;1.15;;;;;;;0.49;100.00;99983.91;4959207;28;20034;-80
2024/01/18 14:36:10;;;;;;;4.32;1.20;;;;;;;0.48;100.00;99992.84;4953012;28;20495;-79
2024/01/18 14:38:36;;;;;;;3.58;1.00;;;;;;;0.34;100.00;99986.13;4966638;28;20031;-82
2024/01/18 14:41:02;;;;;;;5.85;1.10;;;;;;;0.34;100.00;100001.09;4974756;28;20049;-80
2024/01/18 14:43:28;;;;;;;4.10;0.85;;;;;;;0.15;100.00;100009.00;4935450;28;20047;-81
2024/01/18 14:45:54;;;;;;;5.22;1.00;;;;;;;0.13;100.00;100005.78;4952724;28;20089;-81
2024/01/18 14:48:21;;;;;;;4.95;1.38;;;;;;;0.06;100.00;100010.31;4933118;28;20043;-81
2024/01/18 14:50:46;;;;;;;5.07;1.05;;;;;;;0.02;100.00;100011.78;4947771;28;20488;-77
2024/01/18 14:53:16;;;;;;;3.80;1.23;;;;;;;-0.04;100.00;100015.28;4942846;28;20133;-83
2024/01/18 14:55:42;;;;;;;2.15;1.15;;;;;;;-0.09;100.00;100023.00;4956884;28;20035;-82
2024/01/18 14:58:08;;;;;;;4.32;0.90;;;;;;;-0.14;100.00;100025.47;4963663;28;20323;-83
2024/01/18 15:00:36;;;;;;;2.78;0.90;;;;;;;-0.23;100.00;100027.59;4963033;28;20042;-81
2024/01/18 15:03:02;;;;;;;3.05;1.20;;;;;;;-0.31;100.00;100035.75;4945246;28;20405;-81
2024/01/18 15:05:28;;;;;;;3.72;0.80;;;;;;;-0.37;100.00;100045.31;4953767;28;20039;-83
2024/01/18 15:07:57;;;;;;;3.50;0.90;;;;;;;-0.48;100.00;100043.38;4952491;28;20045;-79
2024/01/18 15:10:23;;;;;;;3.63;1.08;;;;;;;-0.54;100.00;100062.66;4944149;28;20034;-81
2024/01/18 15:12:50;;;;;;;2.50;0.90;;;;;;;-0.64;100.00;100064.94;4932193;28;20039;-83
2024/01/18 15:15:17;;;;;;;3.10;1.25;;;;;;;-0.69;100.00;100075.28;4952675;28;20031;-81
2024/01/18 15:17:45;;;;;;;3.72;1.08;;;;;;;-0.78;100.00;100076.56;4972416;28;20035;-84
2024/01/18 15:20:16;;;;;;;4.80;1.10;;;;;;;-0.84;100.00;100083.47;4925149;28;20058;-84
2024/01/18 15:22:42;;;;;;;4.53;1.33;;;;;;;-0.88;100.00;100088.34;4960248;28;20050;-84
2024/01/18 15:25:10;;;;;;;4.95;1.17;;;;;;;-0.92;100.00;100088.97;4965573;28;20038;-80
2024/01/18 15:27:37;;;;;;;3.60;0.90;;;;;;;-0.96;100.00;100096.47;4942002;29;20039;-84
2024/01/18 15:30:05;;;;;;;2.88;0.85;;;;;;;-1.01;100.00;100104.19;4941837;28;20045;-83
2024/01/18 15:32:34;;;;;;;3.85;0.80;;;;;;;-1.10;100.00;100105.44;4944259;28;20054;-86
2024/01/18 15:35:03;;;;;;;4.47;0.95;;;;;;;-1.15;100.00;100110.53;4947725;28;20054;-87
2024/01/18 15:37:30;;;;;;;2.80;1.10;;;;;;;-1.20;100.00;100116.38;4955501;28;20109;-83
2024/01/18 15:40:02;;;;;;;2.92;1.00;;;;;;;-1.26;100.00;100114.59;4960503;28;20050;-82
2024/01/18 15:42:30;;;;;;;5.50;1.05;;;;;;;-1.25;100.00;100123.28;4963581;28;20083;-82
2024/01/18 15:45:00;;;;;;;5.25;1.35;;;;;;;-1.27;100.00;100133.19;4954284;28;20030;-84
2024/01/18 15:47:26;;;;;;;2.53;0.90;;;;;;;-1.31;100.00;100131.97;4946074;28;20031;-82
2024/01/18 15:49:52;;;;;;;3.63;1.27;;;;;;;-1.38;100.00;100132.00;4955639;28;20413;-82
2024/01/18 15:52:19;;;;;;;1.92;0.90;;;;;;;-1.42;100.00;100139.50;4938773;28;20035;-80
2024/01/18 15:54:47;;;;;;;4.40;1.20;;;;;;;-1.47;100.00;100136.66;4962043;28;20134;-81
2024/01/18 15:57:20;;;;;;;3.60;0.95;;;;;;;-1.49;100.00;100153.63;4953935;28;20524;-83
2024/01/18 15:59:50;;;;;;;2.28;1.00;;;;;;;-1.55;100.00;100150.03;4966583;28;20102;-81
2024/01/18 16:02:17;;;;;;;3.20;1.30;;;;;;;-1.58;100.00;100153.03;4964280;28;20835;-83
2024/01/18 16:04:44;;;;;;;3.75;0.70;;;;;;;-1.63;100.00;100158.09;4952516;28;20042;-83
2024/01/18 16:07:10;;;;;;;3.15;0.95;;;;;;;-1.68;100.00;100161.34;4939945;28;20038;-80
2024/01/18 16:09:36;;;;;;;;;;;;;;;-1.72;100.00;100164.56;4951755;28;20038;-81
2024/01/18 16:12:03;;;;;;;3.95;1.02;;;;;;;-1.75;100.00;100175.50;4938210;28;19914;-81
2024/01/18 16:14:29;;;;;;;5.70;0.98;;;;;;;-1.79;100.00;100180.31;4950815;28;20626;-82
2024/01/18 16:16:56;;;;;;;3.33;1.50;;;;;;;-1.83;100.00;100192.25;4950499;28;20042;-81
2024/01/18 16:19:24;;;;;;;6.63;1.30;;;;;;;-1.85;100.00;100202.13;4948857;28;20436;-82
2024/01/18 16:21:49;;;;;;;6.95;1.13;;;;;;;-1.88;100.00;100201.75;4942202;28;20030;-82
2024/01/18 16:24:17;;;;;;;3.60;1.13;;;;;;;-1.90;100.00;100199.28;4923694;28;20047;-81
2024/01/18 16:26:45;;;;;;;4.88;1.65;;;;;;;-1.93;100.00;100204.97;4949836;28;20121;-82
2024/01/18 16:29:11;;;;;;;5.35;1.20;;;;;;;-1.98;100.00;100205.53;4928531;28;20030;-81
2024/01/18 16:31:38;;;;;;;3.22;1.10;;;;;;;-1.96;100.00;100221.94;4965471;28;20031;-81
2024/01/18 16:34:04;;;;;;;4.75;1.38;;;;;;;-1.95;100.00;100223.53;4948856;28;20042;-80
2024/01/18 16:36:30;;;;;;;5.72;1.55;;;;;;;-1.95;100.00;100226.16;4925500;28;20310;-82
2024/01/18 16:39:05;;;;;;;5.70;1.23;;;;;;;-1.98;100.00;100233.59;4931613;28;20043;-82
2024/01/18 16:41:35;;;;;;;3.28;1.10;;;;;;;-1.98;100.00;100233.59;4944689;28;20039;-80
2024/01/18 16:44:01;;;;;;;;;;;;;;;-2.01;100.00;100237.44;4961834;28;20047;-83
2024/01/18 16:46:27;;;;;;;2.58;1.20;;;;;;;-2.04;100.00;100244.91;4937278;28;19969;-82
2024/01/18 16:48:53;;;;;;;2.47;0.93;;;;;;;-2.09;100.00;100242.88;4960375;28;20040;-77
2024/01/18 16:51:18;;;;;;;5.88;1.42;;;;;;;-2.10;100.00;100245.69;4929608;28;20427;-80
2024/01/18 16:53:44;;;;;;;8.60;1.20;;;;;;;-2.14;100.00;100245.28;4962381;28;20035;-81
2024/01/18 16:56:12;;;;;;;4.00;1.63;;;;;;;-2.16;100.00;100249.94;4964727;28;20034;-81
2024/01/18 16:58:38;;;;;;;3.63;1.40;;;;;;;-2.18;100.00;100257.19;4955841;28;20078;-80
2024/01/18 17:01:04;;;;;;;4.22;1.30;;;;;;;-2.21;100.00;100260.22;4944355;28;20142;-82
2024/01/18 17:03:30;;;;;;;2.97;1.20;;;;;;;-2.27;100.00;100261.81;4955943;28;20077;-82
2024/01/18 17:05:55;;;;;;;2.95;1.45;;;;;;;-2.28;100.00;100269.88;4949768;28;20042;-82
2024/01/18 17:08:21;;;;;;;3.90;1.27;;;;;;;-2.33;100.00;100277.53;4965717;28;20505;-81
2024/01/18 17:10:48;;;;;;;3.15;1.08;;;;;;;-2.36;100.00;100283.97;4929881;28;20093;-84
2024/01/18 17:13:13;;;;;;;3.15;1.40;;;;;;;-2.36;100.00;100288.41;4952969;28;20042;-80
2024/01/18 17:15:39;;;;;;;4.20;1.63;;;;;;;-2.38;100.00;100299.06;4966290;28;20026;-82
2024/01/18 17:18:05;;;;;;;6.88;1.95;;;;;;;-2.39;100.00;100301.91;4933462;28;20085;-83
2024/01/18 17:20:32;;;;;;;4.85;1.35;;;;;;;-2.40;100.00;100301.09;4956991;28;20053;-82
2024/01/18 17:22:58;;;;;;;2.67;1.38;;;;;;;-2.41;100.00;100296.06;4938472;28;20493;-81